Friday, October 31, 2014, 8:36 AM EDT

KLNS, Lancaster Airport

Location: Lititz, PA, United States Lat: 40.117
Local Time: 8:36 AM EDT (12:36 GMT) Lon: -76.3
Time Zone: US/Eastern Elev: 403 ft

Show me the last for .
Show Decoded

2014-10-31 07:53 METAR KLNS 311153Z 00000KT 10SM OVC055 06/03 A3001 RMK AO2 SLP164 T00610033
                 10072 20061 50001 =
2014-10-31 06:53 METAR KLNS 311053Z 08003KT 10SM OVC055 07/04 A3002 RMK AO2 SLP166 T00670044 $ =
2014-10-31 05:53 METAR KLNS 310953Z 00000KT 10SM OVC055 07/04 A3001 RMK AO2 SLP164 T00670039 $ =
2014-10-31 04:53 METAR KLNS 310853Z AUTO 00000KT 10SM OVC055 07/02 A3001 RMK AO2 SLP162 T00720022
                 58005 $ =
2014-10-31 02:53 METAR KLNS 310653Z AUTO 00000KT 10SM OVC050 07/03 A3002 RMK AO2 SLP167 T00720028
                 $ =
2014-10-31 01:53 METAR KLNS 310553Z AUTO 00000KT 10SM OVC050 07/03 A3002 RMK AO2 SLP168 T00670033
                 10100 20061 58004 $ =
2014-10-31 00:53 METAR KLNS 310453Z AUTO 00000KT 10SM OVC050 07/04 A3003 RMK AO2 SLP170 T00670039
                 401280039 $ =
2014-10-30 23:53 METAR KLNS 310353Z AUTO 09003KT 10SM OVC050 07/03 A3004 RMK AO2 SLP172 T00670033
                 $ =
2014-10-30 22:53 METAR KLNS 310253Z AUTO 00000KT 10SM BKN055 08/03 A3004 RMK AO2 SLP172 T00780033
                 51002 $ =
2014-10-30 21:53 METAR KLNS 310153Z 02003KT 10SM OVC050 09/04 A3004 RMK AO2 SLP172 T00890039 $ =
2014-10-30 20:53 METAR KLNS 310053Z 00000KT 10SM OVC050 09/03 A3003 RMK AO2 SLP171 T00940033 $ =
2014-10-30 19:53 METAR KLNS 302353Z 32003KT 10SM BKN050 09/03 A3003 RMK AO2 SLP170 T00940033
                 10128 20089 50006 $ =
2014-10-30 18:53 METAR KLNS 302253Z 33004KT 10SM BKN050 09/02 A3003 RMK AO2 SLP171 T00940022 $ =
2014-10-30 17:53 METAR KLNS 302153Z 32007KT 10SM OVC055 11/02 A3002 RMK AO2 SLP167 T01110022 =
2014-10-30 16:53 METAR KLNS 302053Z 30006KT 10SM BKN060 12/03 A3001 RMK AO2 SLP163 T01170028
                 56003 =
2014-10-30 15:53 METAR KLNS 301953Z 33006KT 10SM OVC060 12/03 A3001 RMK AO2 SLP163 T01220028 =
2014-10-30 14:53 METAR KLNS 301853Z 31009KT 10SM FEW045 OVC060 12/03 A3001 RMK AO2 SLP162
                 T01220033 =
2014-10-30 13:53 METAR KLNS 301753Z 32006KT 10SM OVC060 12/03 A3002 RMK AO2 SLP166 T01220028
                 10128 20039 58009 =
2014-10-30 12:53 METAR KLNS 301653Z 34007KT 10SM SCT041 13/03 A3003 RMK AO2 SLP170 T01280033 =
2014-10-30 11:53 METAR KLNS 301553Z 32005KT 10SM BKN038 11/04 A3005 RMK AO2 SLP176 T01110039 =
2014-10-30 10:53 METAR KLNS 301453Z 34007KT 10SM CLR 12/04 A3005 RMK AO2 SLP175 T01170044 50007 =
2014-10-30 09:53 METAR KLNS 301353Z 30007KT 10SM CLR 09/06 A3005 RMK AO2 SLP176 T00940056 =
2014-10-30 08:53 METAR KLNS 301253Z 29003KT 6SM BR CLR 06/05 A3004 RMK AO2 SLP175 T00610050 =

Support USWX by starting your Amazon purchase here.